Pagina principale
METAR-TAF:

METAR-TAF

Aeroporti :

Aeroporto di Graz

Graz, Austria

latitudine: 47-00N, longitudine: 015-26E, altezza: 340 m

Osservazione

Il bollettino è stato emesso 14 minuti fa, alle 19:20 UTC
Vento 2 kt da direzioni variabili
Temperature 16°C
Umidità 63%
Pressione 1020 hPa
Visibilità 10 km o più
Poco nuvoloso ad un'altezza di 6000 ft
Nuvoloso ad un'altezza di 8000 ft

METAR: LOWG 231920Z VRB02KT 9999 FEW060 BKN080 16/09 Q1020 NOSIG

Ora: 21:34 (19:34 UTC)

Previsione

Il bollettino è stato emesso 2 ore e 19 minuti fa, alle 17:15 UTC
Previsione valida dal 23 alle 18 UTC al 24 alle 18 UTC
Vento 4 kt da nord/nord-ovest
Visibilità 10 km o più
Poco nuvoloso ad un'altezza di 6000 ft
Nubi sparse ad un'altezza di 10000 ft
Temporaneamente
dal 23 alle 18 UTC al 23 alle 21 UTC
Vento 5 kt da sud

TAF: LOWG 231715Z 2318/2418 34004KT 9999 FEW060 SCT100 TX19/2414Z TN11/2402Z TEMPO 2318/2321 17005KT

Osservazioni e previsioni meteorologiche di più di 4000 aeroporti (messaggi METAR e TAF).

Le stazioni disponibili sono rappresentate dai dischi gialli e rossi sulla carta.

Puntare il mouse per vedere il nome della stazione.

Clicca sopra per visualizzare le osservazioni e previsioni meteorologiche.

Per cambiare la mappa : fare clic sui pulsanti verdi con una croce nera per ingrandire, il pulsante verde con un trattino per diminuire, o sulla freccia verde per le mappe adiacenti.


METAR-TAF: